Etusivu
METAR-TAF:

METAR-TAF

Lentoasemat :

Fort Rucker, Alabama, Yhdysvallat

Leveyspiiri: 31-21N, Pituuspiiri: 085-40W, korkeus merenpinnasta: 97 m

Tämänhetkinen sää

Tämä raportti tehtiin 34 minuuttia sitten, kello 14.08 UTC
Tuuli 3 kn etelästä
Lämpötila 18°C
Kosteus 100%
Ilmanpaine 1021 hPa
Näkyvyys: 0.8 km
sumua

METAR: KHEY 181408Z AUTO 17003KT 1/2SM FG VV001 18/18 A3014 RMK AO2 SLP208 RVRNO

Aika: 08:42 (14:42 UTC)


TAF: puuttuu

Säähavainnot ja -ennusteet yli 4000 lentoasemalta (METAR- ja TAF-raportit).

Käytössä olevat sääasemat on merkitty karttaan keltaisilla ja punaisilla pisteillä.

Aseta hiiri pisteen päälle nähdäksesi sääaseman nimen.

Klikkaa sitten nähdäksesi säähavainnot ja -ennusteet.

Kartan vaihtaminen: klikkaa mustalla rastilla varustettuja vihreitä pisteitä, niin voit zoomata sisään; viivalla varustettua vihreää pistettä, niin voit zoomata ulos tai vihreitä nuolia, niin pääset viereisille kartoille.


METAR-TAF: